WBGB

Bintulu Airport

Airport
ICAO code
WBGB
IATA Code
BTU
Summary
ICAO Region
APAC
ICAO Territory
Location

Bintulu, Sarawak

Serving
Bintulu
Elevation
74 ft
Coordinates
3° 7' 26" N , 113° 1' 14" E
KCC
Metar
WBGB 180000Z 15003KT 100V230 9999 FEW008 FEW015CB 27/26 Q1010

Airport located 3 nm southwest of the town of Bintulu, Sarawak, Malaysia.

Airport map

Aerial View

SKYbrary Partners:

Safety knowledge contributed by: